الصفحة الرئيسية
METAR-TAF:

METAR-TAF

مطار :

مطار بواكي

بواكي, كوت ديفوار

دائرة عرض: 07-44N, خط طول: 005-04W, ارتفاع: 376 متر

مراقبة الطقس الحالي

تاريخ ووقت الإصدار 45 دقيقة قبل الساعة 07:00UTC
ريح 10 عقدة من الجنوب/الجنوب الغربي
درجة الحرارة 24°درجة مئوية
الرطوبة 100%
ضغط 1013 hPa
الرؤية: 8000 متر
غيوم قليلة على ارتفاع 1000 قدم

METAR: DIBK 250700Z 20010KT 8000 FEW010 24/24 Q1013 NOSIG

زمن: 07:45 (07:45 UTC)

توقعات

تاريخ ووقت الإصدار 1ساعة و 47 دقيقة قبل الساعة 05:58UTC
التوقعات صالحة من25 الساعة 06 UTC إلى 26 الساعة 06 UTC
ريح 10 عقدة من الجنوب/الجنوب الغربي
الرؤية: 8000 متر
غيوم قليلة على ارتفاع 1300 قدم
مؤقت
من 25 الساعة 18 UTC إلى 25 الساعة 24 UTC
غيوم مفككة على ارتفاع 1300 قدم
غيوم قليلة على ارتفاع 2500 قدم, مزنة ركامية.
عاصفة رعدية,

TAF: DIBK 250558Z 2506/2606 20010KT 8000 FEW013 TEMPO 2518/2524 TS BKN013 FEW025CB

أرصاد الطقس والتوقعات من أكثر من 4000 مطار (تقارير الطقس للمطار METAR والتنبؤ بالطقس بالمطارTAF).

المحطات المتاحة هي النقط الصفراء والحمراء على الخريطة.

حرك المؤشر فوق النقطة لمعرفة اسم المحطة.

ثم انقر لمعرفة أرصاد وتوقعات الطقس.

لتغيير الخارطة: اضغط على الأزرار الخضراء مع رمز الصليب الأسود للتكبير. على الزر الأخضر مع شرطة للتصغير، أو على الأسهم الخضراء للخرائط المجاورة.


METAR-TAF: